Bletchley, United Kingdom
Current Conditions -  °F | °C
As of 3:50 PM on Saturday 20 Dec 2014 (Local Time) from EGTC Reporting Station
Few Clouds Few Clouds  
Wind Chill: 43°   Ceiling: Unl
Heat Index: 46°   Visibility: 6mi
Dew Point: 39°   Wind: 7mph
Humidity: 76%   Direction: 270°W
Pressure: 30.3"   Gusts: NA
Location:  51.99°N, 0.73°W
Report Text: EGTC 201550Z 27006KT 9999 FEW035 08/04 Q1026
Loading
Personal Weather Stations






























Interactive Weather Map New forecast layout! Learn more

10-Day Weather Forecast

Advertisements
Track Severe Weather on mobile